Time;durP1;ratioP1;P1;durP2;ratioP2;P2;SDS_P1;SDS_P2;PMS_P1;PMS_P2;Temp;Humidity;BMP_temperature;BMP_pressure;BME280_temperature;BME280_humidity;BME280_pressure;Samples;Min_cycle;Max_cycle;Signal;HPM_P1;HPM_P2
2022/04/02 00:00:29;;;;;;;47.38;12.18;;;;;;;12.57;100.00;98831.81;5027881;28;20664;-78
2022/04/02 00:02:55;;;;;;;50.22;12.90;;;;;;;12.50;100.00;98816.22;5027399;28;20060;-78
2022/04/02 00:05:21;;;;;;;49.53;11.23;;;;;;;12.60;100.00;98829.22;5027550;28;20420;-77
2022/04/02 00:07:46;;;;;;;49.45;13.50;;;;;;;12.79;100.00;98837.88;4994703;28;20045;-78
2022/04/02 00:10:12;;;;;;;60.60;12.85;;;;;;;12.71;100.00;98795.56;5027199;28;20025;-78
2022/04/02 00:12:39;;;;;;;54.13;13.38;;;;;;;13.08;100.00;98834.47;5011294;28;20509;-78
2022/04/02 00:15:05;;;;;;;51.90;11.43;;;;;;;12.88;100.00;98800.75;5011061;28;20029;-76
2022/04/02 00:17:30;;;;;;;39.05;10.82;;;;;;;13.02;100.00;98818.03;5027587;28;20460;-76
2022/04/02 00:19:56;;;;;;;55.22;11.55;;;;;;;13.03;100.00;98814.59;5030286;28;20037;-76
2022/04/02 00:22:21;;;;;;;61.60;13.68;;;;;;;12.84;100.00;98780.91;5033726;28;20022;-77
2022/04/02 00:24:46;;;;;;;46.88;10.88;;;;;;;13.09;100.00;98809.41;5033954;28;20036;-76
2022/04/02 00:27:12;;;;;;;42.15;9.75;;;;;;;13.17;100.00;98806.81;5034109;28;20465;-77
2022/04/02 00:29:41;;;;;;;48.55;10.73;;;;;;;13.15;100.00;98787.84;5049030;28;20032;-77
2022/04/02 00:32:07;;;;;;;50.80;10.27;;;;;;;13.31;100.00;98812.84;5053084;28;20029;-75
2022/04/02 00:34:33;;;;;;;38.95;7.82;;;;;;;13.39;100.00;98815.47;5054562;28;20044;-77
2022/04/02 00:36:58;;;;;;;53.80;11.55;;;;;;;13.38;100.00;98800.78;5053780;28;20465;-75
2022/04/02 00:39:24;;;;;;;40.08;10.30;;;;;;;13.50;100.00;98811.13;5053631;28;20029;-78
2022/04/02 00:41:49;;;;;;;37.25;8.90;;;;;;;13.51;100.00;98814.59;5053637;28;20039;-74
2022/04/02 00:44:20;;;;;;;39.40;10.07;;;;;;;13.43;99.90;98786.97;5054048;28;20032;-75
2022/04/02 00:46:45;;;;;;;44.42;9.43;;;;;;;13.41;99.69;98793.00;5053829;28;20052;-78
2022/04/02 00:49:12;;;;;;;35.58;8.85;;;;;;;13.52;99.47;98800.75;5052626;28;20056;-74
2022/04/02 00:51:43;;;;;;;40.00;10.00;;;;;;;13.41;99.20;98780.91;5052283;28;20029;-76
2022/04/02 00:54:14;;;;;;;33.80;8.10;;;;;;;13.13;99.23;98748.94;5053567;28;20086;-77
2022/04/02 00:56:40;;;;;;;46.10;10.15;;;;;;;13.18;99.12;98746.34;5052166;28;20124;-77
2022/04/02 00:59:06;;;;;;;38.15;9.35;;;;;;;13.45;98.99;98804.25;5053656;28;20036;-76
2022/04/02 01:01:31;;;;;;;35.50;9.07;;;;;;;13.46;98.54;98793.88;5053411;28;20115;-79
2022/04/02 01:04:04;;;;;;;39.05;8.00;;;;;;;13.41;98.35;98790.41;5053344;28;20029;-76
2022/04/02 01:06:31;;;;;;;41.15;10.38;;;;;;;13.22;98.88;98758.44;5053472;28;20119;-77
2022/04/02 01:08:58;;;;;;;41.67;9.43;;;;;;;13.38;98.32;98796.47;5041696;28;20037;-75
2022/04/02 01:11:34;;;;;;;38.58;10.93;;;;;;;13.40;98.53;98815.47;5033513;28;20044;-76
2022/04/02 01:13:59;;;;;;;50.83;9.98;;;;;;;13.36;98.27;98803.34;5032544;28;20022;-77
2022/04/02 01:16:25;;;;;;;46.90;10.85;;;;;;;13.00;98.74;98770.56;5061955;28;20040;-75
2022/04/02 01:18:50;;;;;;;35.45;9.32;;;;;;;13.30;98.62;98821.50;5052748;28;20025;-77
2022/04/02 01:21:16;;;;;;;41.72;9.95;;;;;;;13.23;98.23;98799.91;5053178;28;20045;-75
2022/04/02 01:23:41;;;;;;;43.97;9.77;;;;;;;13.22;98.37;98793.00;5052678;28;20411;-75
2022/04/02 01:26:08;;;;;;;43.10;10.75;;;;;;;13.24;97.69;98801.63;5053387;28;20037;-78
2022/04/02 01:28:33;;;;;;;49.47;10.68;;;;;;;13.36;97.68;98811.13;5052638;28;20032;-75
2022/04/02 01:31:06;;;;;;;37.95;9.43;;;;;;;13.31;97.43;98824.94;5052923;28;20032;-78
2022/04/02 01:33:33;;;;;;;45.00;10.00;;;;;;;13.22;97.17;98821.50;5052111;28;20040;-75
2022/04/02 01:36:05;;;;;;;40.30;8.88;;;;;;;13.25;96.92;98825.81;5052985;28;20028;-75
2022/04/02 01:38:31;;;;;;;47.45;9.90;;;;;;;13.07;96.54;98805.94;5053009;28;20025;-75
2022/04/02 01:40:57;;;;;;;42.15;9.27;;;;;;;13.08;96.08;98798.19;5057080;28;20029;-76
2022/04/02 01:43:24;;;;;;;37.72;8.68;;;;;;;13.19;95.68;98831.00;5052924;28;20078;-76
2022/04/02 01:45:54;;;;;;;35.17;8.30;;;;;;;13.24;95.95;98840.50;5052400;28;20098;-76
2022/04/02 01:48:19;;;;;;;39.45;9.00;;;;;;;13.14;95.94;98838.78;5052535;28;20029;-75
2022/04/02 01:50:45;;;;;;;44.88;9.15;;;;;;;13.24;95.79;98856.03;5052604;28;20033;-76
2022/04/02 01:53:11;;;;;;;37.50;9.70;;;;;;;12.93;95.21;98795.59;5052578;28;20036;-75
2022/04/02 01:55:36;;;;;;;44.28;9.43;;;;;;;13.13;94.91;98836.19;5052684;28;20059;-79
2022/04/02 01:58:01;;;;;;;32.50;9.00;;;;;;;12.98;94.35;98806.81;5052516;28;20486;-76
2022/04/02 02:00:27;;;;;;;46.42;9.88;;;;;;;13.18;94.47;98840.50;5051734;28;20083;-76
2022/04/02 02:02:52;;;;;;;43.15;9.45;;;;;;;13.22;93.52;98867.25;5052362;28;20136;-79
2022/04/02 02:05:18;;;;;;;38.15;8.95;;;;;;;13.11;93.44;98856.91;5039061;28;20104;-77
2022/04/02 02:07:50;;;;;;;38.47;8.70;;;;;;;12.94;93.30;98828.41;5032526;28;20025;-76
2022/04/02 02:10:16;;;;;;;38.35;8.32;;;;;;;13.10;92.59;98858.63;5031758;28;20366;-79
2022/04/02 02:12:42;;;;;;;36.75;9.80;;;;;;;13.09;92.26;98856.91;5036177;28;20094;-78
2022/04/02 02:15:08;;;;;;;42.20;9.52;;;;;;;13.22;91.62;98867.25;5051485;28;20431;-76
2022/04/02 02:17:34;;;;;;;39.53;8.93;;;;;;;13.10;90.91;98850.00;5049807;28;20116;-76
2022/04/02 02:19:59;;;;;;;43.90;10.02;;;;;;;13.23;90.92;98876.78;5052226;28;20104;-78
2022/04/02 02:22:25;;;;;;;42.40;8.77;;;;;;;13.09;90.67;98869.84;5051728;28;20025;-76
2022/04/02 02:24:50;;;;;;;39.08;8.40;;;;;;;13.00;90.75;98863.81;5051801;28;20032;-76
2022/04/02 02:27:16;;;;;;;35.67;8.40;;;;;;;12.85;91.12;98847.38;5049295;28;20491;-76
2022/04/02 02:29:41;;;;;;;35.17;8.80;;;;;;;13.13;90.70;98888.00;5031169;28;20547;-76
2022/04/02 02:32:07;;;;;;;38.50;7.57;;;;;;;13.09;90.14;98884.53;5031188;28;20713;-77
2022/04/02 02:37:17;;;;;;;39.17;8.27;;;;;;;13.24;88.90;98899.25;5031239;28;20091;-76
2022/04/02 02:39:42;;;;;;;32.40;6.65;;;;;;;13.21;88.60;98907.88;5030869;28;20033;-76
2022/04/02 02:42:08;;;;;;;36.83;7.22;;;;;;;13.07;88.49;98894.91;5030432;28;20031;-76
2022/04/02 02:44:33;;;;;;;34.60;7.25;;;;;;;12.94;88.73;98895.75;5030894;28;20033;-76
2022/04/02 02:46:59;;;;;;;25.55;7.68;;;;;;;12.93;89.29;98902.66;5030734;28;20492;-76
2022/04/02 02:49:25;;;;;;;32.33;8.68;;;;;;;12.83;89.28;98894.88;5030776;28;20405;-76
2022/04/02 02:51:51;;;;;;;38.47;7.85;;;;;;;12.78;89.38;98897.44;4995650;28;20516;-76
2022/04/02 02:54:16;;;;;;;38.00;8.57;;;;;;;12.59;89.63;98874.06;5030875;28;20028;-77
2022/04/02 02:56:42;;;;;;;33.40;7.40;;;;;;;12.73;90.03;98900.00;5030580;28;20108;-76
2022/04/02 02:59:07;;;;;;;39.33;8.48;;;;;;;12.61;90.02;98898.25;5030693;28;20103;-76
2022/04/02 03:01:33;;;;;;;34.60;8.10;;;;;;;12.49;89.68;98872.31;5030387;28;20502;-76
2022/04/02 03:03:59;;;;;;;33.58;8.23;;;;;;;12.71;89.54;98901.75;5030649;28;20444;-76
2022/04/02 03:06:24;;;;;;;36.05;7.82;;;;;;;12.70;88.99;98906.91;5011567;28;20804;-76
2022/04/02 03:08:49;;;;;;;32.35;7.63;;;;;;;12.30;88.58;98846.38;5030722;28;20113;-76
2022/04/02 03:11:15;;;;;;;34.08;7.93;;;;;;;12.61;87.41;98902.56;5029901;28;20018;-78
2022/04/02 03:13:41;;;;;;;28.15;6.70;;;;;;;12.59;87.87;98909.47;5030511;28;20075;-76
2022/04/02 03:16:06;;;;;;;37.17;6.35;;;;;;;12.52;87.81;98921.50;5030418;28;20025;-76
2022/04/02 03:18:32;;;;;;;31.30;7.18;;;;;;;12.31;87.65;98891.22;5030125;28;20498;-77
2022/04/02 03:20:58;;;;;;;32.05;6.03;;;;;;;12.40;87.21;98914.56;5030257;28;20029;-76
2022/04/02 03:23:23;;;;;;;41.92;8.13;;;;;;;12.14;86.64;98876.50;5030602;28;20397;-76
2022/04/02 03:25:49;;;;;;;26.90;6.68;;;;;;;12.40;86.36;98922.34;5030251;28;20025;-76
2022/04/02 03:28:14;;;;;;;32.45;6.63;;;;;;;12.53;85.76;98940.50;5027649;28;20053;-76
2022/04/02 03:30:40;;;;;;;34.42;6.85;;;;;;;12.38;85.22;98929.22;5030174;28;20435;-76
2022/04/02 03:33:05;;;;;;;36.38;6.97;;;;;;;12.28;85.68;98935.22;5029602;28;20033;-76
2022/04/02 03:35:31;;;;;;;33.47;6.22;;;;;;;12.09;86.04;98940.28;5030202;28;20029;-78
2022/04/02 03:37:56;;;;;;;28.67;6.53;;;;;;;11.94;85.62;98928.06;5029889;28;20036;-76
2022/04/02 03:40:26;;;;;;;27.60;6.70;;;;;;;11.98;85.40;98953.13;5030101;28;20061;-77
2022/04/02 03:42:53;;;;;;;24.05;6.55;;;;;;;11.77;85.63;98948.63;5031105;28;20025;-77
2022/04/02 03:45:20;;;;;;;22.25;5.55;;;;;;;11.65;87.29;98953.72;5030170;28;20461;-77
2022/04/02 03:47:46;;;;;;;34.40;6.88;;;;;;;11.52;87.78;98946.72;5038660;28;20039;-77
2022/04/02 03:50:12;;;;;;;22.80;5.78;;;;;;;11.41;88.21;98944.91;5034171;28;20386;-77
2022/04/02 03:52:38;;;;;;;23.00;6.40;;;;;;;11.24;88.51;98915.47;5037004;28;20048;-77
2022/04/02 03:55:05;;;;;;;29.23;7.03;;;;;;;11.57;88.16;98968.31;5037986;28;20029;-76
2022/04/02 03:57:31;;;;;;;28.05;6.38;;;;;;;11.63;87.59;98973.53;5045816;28;20025;-76
2022/04/02 03:59:57;;;;;;;23.95;7.15;;;;;;;11.47;87.47;98980.28;5014131;28;20423;-75
2022/04/02 04:02:22;;;;;;;29.70;5.57;;;;;;;11.24;90.72;99013.63;5050123;28;20049;-77
2022/04/02 04:04:48;;;;;;;29.75;5.95;;;;;;;10.95;93.09;99015.06;5050471;28;20087;-75
2022/04/02 04:07:14;;;;;;;32.83;6.90;;;;;;;10.89;93.92;99004.66;5027062;28;20084;-77
2022/04/02 04:09:41;;;;;;;35.55;7.82;;;;;;;10.91;94.66;99015.00;5026261;28;20128;-77
2022/04/02 04:12:08;;;;;;;41.80;7.65;;;;;;;11.10;94.93;99026.38;5027588;28;20044;-77
2022/04/02 04:14:33;;;;;;;34.55;7.15;;;;;;;11.17;94.79;99016.13;5027807;28;20540;-77
2022/04/02 04:16:59;;;;;;;30.90;6.90;;;;;;;11.30;93.68;99014.56;5020236;28;20140;-77
2022/04/02 04:19:24;;;;;;;32.08;7.53;;;;;;;11.25;93.00;99010.19;5007211;28;20445;-78
2022/04/02 04:21:50;;;;;;;30.35;6.20;;;;;;;11.59;91.26;99032.09;5010139;28;20521;-78
2022/04/02 04:24:16;;;;;;;41.22;6.78;;;;;;;11.55;90.62;99040.66;5012386;28;20505;-78
2022/04/02 04:26:42;;;;;;;36.95;8.20;;;;;;;11.34;90.83;98992.22;5012991;28;20060;-78
2022/04/02 04:29:07;;;;;;;35.40;7.15;;;;;;;11.73;90.73;99039.13;5015679;28;20026;-77
2022/04/02 04:31:34;;;;;;;33.75;7.10;;;;;;;11.82;89.82;99034.00;5026316;28;20472;-77
2022/04/02 04:33:59;;;;;;;37.42;7.80;;;;;;;11.91;88.49;99022.88;5026082;28;20099;-77
2022/04/02 04:36:25;;;;;;;38.13;7.18;;;;;;;12.10;87.73;99044.59;5027408;28;20033;-78
2022/04/02 04:38:51;;;;;;;35.88;7.75;;;;;;;12.30;86.43;99062.88;5043901;28;20040;-77
2022/04/02 04:41:17;;;;;;;53.40;16.58;;;;;;;12.28;86.74;99057.69;5048451;28;20079;-77
2022/04/02 04:43:44;;;;;;;42.08;13.20;;;;;;;12.22;86.68;99049.00;5049934;28;20029;-76
2022/04/02 04:46:10;;;;;;;37.92;9.98;;;;;;;12.42;86.50;99068.16;5050139;28;20121;-76
2022/04/02 04:48:36;;;;;;;41.35;9.15;;;;;;;12.46;86.44;99079.38;5050001;28;20535;-74
2022/04/02 04:51:02;;;;;;;40.50;10.63;;;;;;;12.32;85.70;99048.22;5050046;28;20033;-77
2022/04/02 04:53:28;;;;;;;43.17;11.27;;;;;;;12.49;85.49;99076.81;5049734;28;20381;-77
2022/04/02 04:55:54;;;;;;;43.83;11.05;;;;;;;12.45;85.25;99062.97;5050097;28;20028;-77
2022/04/02 04:58:19;;;;;;;39.22;11.55;;;;;;;12.68;85.53;99084.69;5049980;28;20029;-75
2022/04/02 05:00:45;;;;;;;36.55;9.20;;;;;;;12.88;85.19;99101.19;5049693;28;20104;-78
2022/04/02 05:03:11;;;;;;;41.03;10.27;;;;;;;12.97;84.97;99107.31;5049418;28;20068;-76
2022/04/02 05:05:37;;;;;;;42.30;9.00;;;;;;;13.03;83.86;99109.91;5047300;28;20040;-77
2022/04/02 05:08:03;;;;;;;38.35;9.50;;;;;;;13.00;84.01;99100.41;5049572;28;20029;-77
2022/04/02 05:10:29;;;;;;;39.65;9.85;;;;;;;13.15;83.42;99103.94;5053170;28;20115;-77
2022/04/02 05:12:54;;;;;;;29.63;8.88;;;;;;;13.14;82.99;99099.63;5053556;28;20116;-77
2022/04/02 05:15:20;;;;;;;37.28;8.35;;;;;;;13.14;82.27;99097.03;5053120;28;20025;-78
2022/04/02 05:17:46;;;;;;;36.78;9.05;;;;;;;13.20;82.38;99133.34;5053674;28;20036;-77
2022/04/02 05:20:14;;;;;;;33.88;8.23;;;;;;;13.18;82.95;99124.69;5053273;28;20025;-76
2022/04/02 05:22:41;;;;;;;32.70;8.50;;;;;;;13.27;82.00;99124.72;5041286;28;20033;-77
2022/04/02 05:25:07;;;;;;;36.55;9.40;;;;;;;13.35;82.43;99127.34;5033059;28;20040;-78
2022/04/02 05:27:33;;;;;;;30.00;7.63;;;;;;;13.29;82.01;99114.38;5037986;28;20033;-79
2022/04/02 05:30:00;;;;;;;33.70;8.07;;;;;;;13.32;81.05;99086.75;5051622;28;20020;-80
2022/04/02 05:32:28;;;;;;;28.35;7.57;;;;;;;13.55;84.68;99098.94;5051815;28;20074;-78
2022/04/02 05:34:54;;;;;;;37.70;7.68;;;;;;;13.60;86.18;99084.25;5051910;28;20035;-78
2022/04/02 05:37:20;;;;;;;33.25;6.38;;;;;;;13.72;85.72;99088.56;5051856;28;20114;-78
2022/04/02 05:39:46;;;;;;;28.80;6.30;;;;;;;13.87;84.85;99114.56;5052230;28;20029;-77
2022/04/02 05:42:12;;;;;;;31.42;7.45;;;;;;;13.90;83.47;99122.34;5051735;28;20029;-78
2022/04/02 05:44:38;;;;;;;33.33;6.70;;;;;;;14.04;82.14;99108.53;5051061;28;20048;-79
2022/04/02 05:47:04;;;;;;;28.20;6.80;;;;;;;14.10;79.51;99102.47;5051285;28;20377;-79
2022/04/02 05:49:30;;;;;;;26.77;6.38;;;;;;;14.28;77.46;99114.59;5039006;28;20044;-79
2022/04/02 05:51:55;;;;;;;23.90;5.47;;;;;;;14.43;77.38;99134.50;5032221;28;20072;-79
2022/04/02 05:54:21;;;;;;;30.00;8.82;;;;;;;14.35;77.30;99132.75;5032021;28;20449;-77
2022/04/02 05:56:46;;;;;;;22.05;7.20;;;;;;;14.52;76.51;99134.50;5032147;28;20180;-80
2022/04/02 05:59:11;;;;;;;27.15;6.45;;;;;;;14.45;74.93;99081.69;5031615;28;20041;-78
2022/04/02 06:01:37;;;;;;;24.98;5.70;;;;;;;14.82;72.95;99133.63;5031950;28;20048;-77
2022/04/02 06:04:03;;;;;;;31.27;6.47;;;;;;;14.76;72.06;99118.03;5030628;28;20110;-78
2022/04/02 06:06:30;;;;;;;27.70;7.22;;;;;;;15.00;70.78;99122.34;5030434;28;20104;-80
2022/04/02 06:08:56;;;;;;;24.35;5.65;;;;;;;15.08;69.44;99114.50;5030619;28;20033;-80
2022/04/02 06:11:22;;;;;;;30.08;6.00;;;;;;;15.17;69.52;99121.41;5030033;28;20032;-80
2022/04/02 06:13:47;;;;;;;17.73;5.30;;;;;;;15.07;70.39;99123.16;5028804;28;20478;-79
2022/04/02 06:16:13;;;;;;;25.55;5.20;;;;;;;14.95;70.09;99118.84;5029016;28;20408;-80
2022/04/02 06:18:38;;;;;;;27.48;5.40;;;;;;;15.16;69.75;99119.66;5027156;28;20521;-80
2022/04/02 06:21:04;;;;;;;21.63;5.40;;;;;;;15.31;68.04;99111.78;5030328;28;20420;-81
2022/04/02 06:23:31;;;;;;;28.23;5.38;;;;;;;15.48;67.35;99118.69;5030128;28;20112;-79
2022/04/02 06:25:57;;;;;;;21.35;4.38;;;;;;;15.75;67.28;99143.69;5030533;28;20068;-77
2022/04/02 06:28:23;;;;;;;12.32;3.58;;;;;;;15.87;66.22;99124.56;5031587;28;20577;-77
2022/04/02 06:30:48;;;;;;;25.50;4.68;;;;;;;16.05;64.33;99140.91;5031260;28;20417;-77
2022/04/02 06:33:15;;;;;;;19.67;4.07;;;;;;;15.76;62.50;99111.56;5031074;28;20057;-76
2022/04/02 06:35:41;;;;;;;16.48;3.67;;;;;;;16.16;61.87;99128.69;5031266;28;20041;-77
2022/04/02 06:38:06;;;;;;;18.55;4.93;;;;;;;16.30;60.15;99137.28;5031236;28;20025;-76
2022/04/02 06:40:32;;;;;;;16.25;3.30;;;;;;;16.36;57.20;99135.50;5031288;28;20033;-77
2022/04/02 06:42:58;;;;;;;11.90;3.60;;;;;;;16.49;57.10;99142.34;5031066;28;20151;-77
2022/04/02 06:45:25;;;;;;;14.18;3.75;;;;;;;16.76;56.23;99130.78;5030884;28;20030;-77
2022/04/02 06:47:50;;;;;;;17.02;3.67;;;;;;;16.81;56.60;99125.53;5030888;28;20505;-78
2022/04/02 06:50:17;;;;;;;15.55;3.03;;;;;;;17.14;53.21;99118.25;5030425;28;20558;-78
2022/04/02 06:52:43;;;;;;;9.60;3.30;;;;;;;17.21;52.95;99100.78;5030982;28;20063;-77
2022/04/02 06:55:11;;;;;;;13.10;3.30;;;;;;;17.45;51.32;99115.28;5030924;28;20430;-78
2022/04/02 06:57:43;;;;;;;15.20;4.05;;;;;;;17.62;51.00;99125.50;5030765;28;20048;-78
2022/04/02 07:00:11;;;;;;;9.20;3.10;;;;;;;17.82;48.89;99109.56;5031053;28;20025;-76
2022/04/02 07:02:37;;;;;;;11.00;4.03;;;;;;;17.84;48.79;99106.91;5011379;28;20413;-76
2022/04/02 07:05:04;;;;;;;11.43;3.00;;;;;;;17.81;48.53;99106.94;5030166;28;20036;-77
2022/04/02 07:07:29;;;;;;;10.15;2.65;;;;;;;17.69;49.22;99084.50;5030624;28;20045;-77
2022/04/02 07:09:54;;;;;;;9.45;2.30;;;;;;;17.82;48.31;99088.66;5030671;28;20017;-77
2022/04/02 07:12:20;;;;;;;5.45;2.20;;;;;;;18.16;46.39;99101.22;5030398;28;20036;-77
2022/04/02 07:14:45;;;;;;;9.27;2.58;;;;;;;18.30;47.14;99103.59;5030629;28;20024;-77
2022/04/02 07:17:11;;;;;;;11.43;2.65;;;;;;;18.26;46.13;99105.41;5029953;28;20025;-77
2022/04/02 07:19:37;;;;;;;13.80;2.08;;;;;;;18.39;45.61;99105.19;5030303;28;20021;-77
2022/04/02 07:22:08;;;;;;;13.55;2.88;;;;;;;18.33;44.83;99115.75;5030250;28;20036;-77
2022/04/02 07:24:36;;;;;;;6.95;2.33;;;;;;;18.37;45.22;99084.31;5030282;28;20030;-78
2022/04/02 07:27:02;;;;;;;8.07;2.08;;;;;;;18.76;43.16;99120.22;5030187;28;20091;-78
2022/04/02 07:29:31;;;;;;;12.02;2.33;;;;;;;18.82;41.35;99114.91;5029850;28;20029;-77
2022/04/02 07:31:56;;;;;;;8.38;1.80;;;;;;;18.88;42.25;99112.16;5010434;28;20030;-77
2022/04/02 07:34:22;;;;;;;7.68;1.85;;;;;;;18.95;42.17;99105.09;5029876;28;20563;-77
2022/04/02 07:37:04;;;;;;;10.85;2.20;;;;;;;19.10;40.83;99108.31;5045429;28;20040;-78
2022/04/02 07:40:08;;;;;;;7.30;1.75;;;;;;;19.18;39.79;99116.88;5029974;28;20025;-77
2022/04/02 07:45:47;;;;;;;7.05;2.30;;;;;;;19.11;39.91;99095.19;5150668;22;20053;-76
2022/04/02 07:48:16;;;;;;;7.15;1.67;;;;;;;18.69;39.15;99079.41;5050888;28;20025;-76
2022/04/02 07:50:45;;;;;;;6.88;1.77;;;;;;;18.89;38.99;99098.19;5042397;28;20048;-77
2022/04/02 07:53:21;;;;;;;4.72;1.73;;;;;;;19.26;37.85;99104.47;5031064;28;20025;-74
2022/04/02 07:55:55;;;;;;;7.32;1.90;;;;;;;19.55;38.49;99127.44;5031022;28;20072;-77
2022/04/02 07:58:28;;;;;;;6.32;1.50;;;;;;;19.29;38.63;99107.03;5030847;28;20026;-76
2022/04/02 08:00:55;;;;;;;8.48;1.30;;;;;;;19.12;39.08;99103.91;5029226;28;20041;-76
2022/04/02 08:03:23;;;;;;;4.78;1.20;;;;;;;19.05;38.94;99108.38;5030832;28;20021;-75
2022/04/02 08:05:48;;;;;;;5.88;1.88;;;;;;;19.45;37.63;99118.06;5030979;28;20033;-76
2022/04/02 08:08:15;;;;;;;7.55;1.65;;;;;;;19.65;36.10;99106.28;5030516;28;20046;-74
2022/04/02 08:10:48;;;;;;;5.10;1.38;;;;;;;19.67;37.70;99120.19;5030947;28;20040;-74
2022/04/02 08:13:14;;;;;;;5.22;1.52;;;;;;;19.87;36.87;99110.16;5030464;28;20029;-76
2022/04/02 08:15:40;;;;;;;7.90;1.52;;;;;;;20.00;36.65;99113.38;5030377;28;20028;-79
2022/04/02 08:18:07;;;;;;;5.05;1.80;;;;;;;20.23;36.65;99116.34;5033723;28;20389;-75
2022/04/02 08:20:33;;;;;;;7.32;1.80;;;;;;;20.12;35.62;99093.84;5028513;28;20031;-79
2022/04/02 08:23:01;;;;;;;3.60;1.38;;;;;;;20.25;35.91;99097.06;5030688;28;20060;-80
2022/04/02 08:25:27;;;;;;;3.78;1.13;;;;;;;20.12;35.23;99059.78;5030644;28;20036;-80
2022/04/02 08:28:28;;;;;;;4.57;1.42;;;;;;;20.48;34.72;99114.81;5030342;28;20032;-76
2022/04/02 08:30:59;;;;;;;4.97;1.33;;;;;;;20.40;34.66;99123.75;4988816;28;20070;-74
2022/04/02 08:33:56;;;;;;;5.18;1.75;;;;;;;20.15;35.12;99114.75;4988942;28;20038;-76
2022/04/02 08:36:37;;;;;;;3.28;1.20;;;;;;;20.35;34.89;99089.81;4988380;28;20424;-77
2022/04/02 08:39:05;;;;;;;4.05;1.25;;;;;;;20.56;34.22;99113.75;4988717;28;20462;-76
2022/04/02 08:41:52;;;;;;;4.63;1.00;;;;;;;20.58;34.39;99114.59;4989068;28;20446;-76
2022/04/02 08:44:45;;;;;;;2.92;0.90;;;;;;;20.63;34.57;99120.56;4992191;28;20518;-77
2022/04/02 08:47:40;;;;;;;4.93;1.50;;;;;;;20.78;33.62;99117.56;4992598;28;20050;-77
2022/04/02 08:50:10;;;;;;;11.55;1.65;;;;;;;20.52;33.61;99120.84;5004713;28;20465;-77
2022/04/02 08:52:49;;;;;;;5.75;1.40;;;;;;;20.84;32.93;99120.00;5011719;28;20183;-77
2022/04/02 08:55:31;;;;;;;6.60;1.63;;;;;;;20.67;34.35;99130.06;5010585;28;20057;-77
2022/04/02 08:58:22;;;;;;;2.75;1.20;;;;;;;20.96;33.27;99123.22;5011268;28;20034;-78
2022/04/02 09:01:08;;;;;;;3.83;1.30;;;;;;;21.15;33.01;99120.97;5011450;28;20081;-74
2022/04/02 09:03:55;;;;;;;4.88;1.10;;;;;;;21.15;33.12;99111.31;5011654;28;20048;-76
2022/04/02 09:07:02;;;;;;;5.63;1.02;;;;;;;21.32;32.75;99112.56;5015720;28;20034;-76
2022/04/02 09:09:54;;;;;;;3.13;1.20;;;;;;;21.13;32.23;99102.63;4992084;28;20050;-75
2022/04/02 09:12:36;;;;;;;6.03;1.20;;;;;;;21.34;31.40;99106.38;4992308;28;20105;-75
2022/04/02 09:15:12;;;;;;;3.33;0.95;;;;;;;21.32;30.75;99089.84;4992086;28;20046;-76
2022/04/02 09:18:02;;;;;;;3.33;1.10;;;;;;;21.50;30.27;99108.56;4989319;28;20038;-76
2022/04/02 09:20:51;;;;;;;3.03;1.25;;;;;;;21.36;31.59;99114.22;4991509;28;20137;-73
2022/04/02 09:23:45;;;;;;;3.30;1.10;;;;;;;21.61;31.74;99100.41;4991706;28;20609;-74
2022/04/02 09:26:16;;;;;;;3.63;1.33;;;;;;;21.59;31.36;99107.47;4991358;28;20038;-74
2022/04/02 09:28:44;;;;;;;4.15;1.13;;;;;;;21.43;31.23;99114.91;4991418;28;20034;-75
2022/04/02 09:31:21;;;;;;;3.90;1.13;;;;;;;21.30;31.37;99109.16;4991364;28;20061;-74
2022/04/02 09:34:06;;;;;;;8.95;1.38;;;;;;;21.26;32.14;99108.38;4990993;28;20136;-72
2022/04/02 09:37:05;;;;;;;5.28;1.23;;;;;;;21.23;32.93;99108.44;4991206;28;20483;-74
2022/04/02 09:40:02;;;;;;;2.80;0.95;;;;;;;21.16;30.83;99070.19;4991050;28;20038;-72
2022/04/02 09:42:46;;;;;;;3.58;1.20;;;;;;;21.03;30.05;99108.19;4991130;28;20070;-77
2022/04/02 09:45:22;;;;;;;3.67;1.10;;;;;;;21.22;30.78;99103.25;4970290;28;20118;-74
2022/04/02 09:47:50;;;;;;;2.95;0.98;;;;;;;21.08;32.39;99095.78;5032950;28;20030;-74
2022/04/02 09:50:24;;;;;;;7.30;1.73;;;;;;;21.10;33.57;99096.63;5033023;28;20041;-74
2022/04/02 09:53:29;;;;;;;1.90;1.10;;;;;;;21.05;31.49;99080.09;5032119;28;20489;-73
2022/04/02 09:56:12;;;;;;;3.15;1.60;;;;;;;21.10;31.52;99078.25;5034802;28;20040;-73
2022/04/02 09:59:01;;;;;;;3.22;1.30;;;;;;;21.49;31.98;99080.59;5031948;28;20397;-70
2022/04/02 10:01:41;;;;;;;4.03;1.05;;;;;;;21.75;31.63;99084.22;5031229;28;20032;-74
2022/04/02 10:04:46;;;;;;;3.60;1.23;;;;;;;21.63;31.16;99096.81;5031656;28;20400;-75
2022/04/02 10:07:46;;;;;;;3.00;1.00;;;;;;;21.49;32.45;99105.06;5031780;28;20029;-74
2022/04/02 10:10:12;;;;;;;2.65;1.00;;;;;;;21.75;31.79;99092.94;4989733;28;20042;-75
2022/04/02 10:12:42;;;;;;;7.07;1.23;;;;;;;21.58;32.09;99075.09;4990011;28;20038;-73
2022/04/02 10:15:08;;;;;;;6.10;1.33;;;;;;;21.31;31.88;99088.09;4974300;28;20089;-73
2022/04/02 10:17:39;;;;;;;1.95;1.20;;;;;;;21.40;31.80;99086.97;4989948;28;20026;-74
2022/04/02 10:20:08;;;;;;;4.55;1.20;;;;;;;21.41;33.06;99080.81;4989573;28;20061;-74
2022/04/02 10:22:41;;;;;;;3.28;1.00;;;;;;;21.54;31.63;99059.44;4973425;28;20057;-75
2022/04/02 10:25:10;;;;;;;2.33;1.30;;;;;;;21.62;31.68;99078.47;4989264;28;20111;-74
2022/04/02 10:27:40;;;;;;;3.80;1.00;;;;;;;21.37;32.02;99031.06;4989943;28;20053;-75
2022/04/02 10:30:09;;;;;;;1.75;0.90;;;;;;;21.74;34.71;99027.34;4988995;28;20034;-74
2022/04/02 10:35:44;;;;;;;3.00;0.85;;;;;;;22.25;30.35;99042.28;4989357;28;20049;-73
2022/04/02 10:38:38;;;;;;;9.02;1.63;;;;;;;22.29;31.53;99053.53;4989160;28;20064;-76
2022/04/02 10:41:18;;;;;;;2.42;1.10;;;;;;;22.55;31.84;99028.16;4989748;28;20046;-76
2022/04/02 10:44:21;;;;;;;;;;;;;;;22.71;30.91;99047.72;4984976;28;20046;-75
2022/04/02 10:46:49;;;;;;;3.83;1.27;;;;;;;22.67;31.14;99032.09;4934288;28;20095;-75
2022/04/02 10:49:23;;;;;;;6.55;1.40;;;;;;;22.85;30.72;99043.75;4970069;28;20031;-74
2022/04/02 10:51:53;;;;;;;6.05;1.40;;;;;;;22.99;31.68;99027.44;4989695;28;20046;-76
2022/04/02 10:54:26;;;;;;;5.20;1.38;;;;;;;22.77;31.76;99034.34;4989667;28;20033;-74
2022/04/02 10:56:54;;;;;;;10.60;1.65;;;;;;;22.54;31.87;99060.63;4989928;28;20117;-75
2022/04/02 10:59:20;;;;;;;5.57;1.10;;;;;;;22.50;32.01;99011.69;4987934;28;20117;-78
2022/04/02 11:01:52;;;;;;;5.45;1.00;;;;;;;22.42;31.84;99047.00;4970273;28;20070;-75
2022/04/02 11:04:40;;;;;;;6.57;1.08;;;;;;;22.39;31.49;99043.59;4969434;28;20053;-77
2022/04/02 11:07:06;;;;;;;5.50;1.35;;;;;;;22.04;31.61;99017.56;4969459;28;20034;-77
2022/04/02 11:09:41;;;;;;;2.67;1.25;;;;;;;22.24;33.21;99034.44;4937649;28;20043;-78
2022/04/02 11:12:07;;;;;;;3.63;1.10;;;;;;;22.24;31.44;99039.69;4969523;28;20098;-77
2022/04/02 11:14:44;;;;;;;2.20;0.93;;;;;;;21.96;32.70;99023.09;4969813;28;20038;-77
2022/04/02 11:17:31;;;;;;;5.72;1.30;;;;;;;21.76;35.21;99034.25;4990518;28;20049;-76
2022/04/02 11:20:23;;;;;;;7.88;1.23;;;;;;;21.45;35.40;99029.94;5030903;28;20116;-75
2022/04/02 11:22:52;;;;;;;6.65;1.33;;;;;;;21.32;35.51;99029.47;5030417;28;20049;-78
2022/04/02 11:25:31;;;;;;;7.45;1.10;;;;;;;21.41;35.86;99015.19;5030896;28;20037;-76
2022/04/02 11:28:11;;;;;;;12.88;1.60;;;;;;;21.71;34.42;99025.66;5031099;28;20036;-76
2022/04/02 11:30:48;;;;;;;7.85;1.65;;;;;;;21.95;32.84;99044.16;5030918;28;20034;-75
2022/04/02 11:33:14;;;;;;;7.03;1.27;;;;;;;21.72;32.76;99030.00;5030959;28;20030;-78
2022/04/02 11:35:47;;;;;;;5.10;1.15;;;;;;;21.74;33.05;99029.97;5043459;28;20029;-79
2022/04/02 11:38:23;;;;;;;6.30;1.35;;;;;;;21.64;33.61;99038.13;5031156;28;20412;-87
2022/04/02 11:40:52;;;;;;;6.75;1.40;;;;;;;21.44;33.79;99001.94;5031124;28;20027;-87
2022/04/02 11:43:18;;;;;;;3.63;1.20;;;;;;;21.49;34.57;99023.66;5030900;28;20087;-86
2022/04/02 11:45:47;;;;;;;3.95;0.82;;;;;;;21.40;33.46;99021.34;5045577;28;20057;-84
2022/04/02 11:48:14;;;;;;;2.63;1.00;;;;;;;21.20;35.58;99000.06;5045638;28;20021;-86